Litomysl, Minnesota
Current Conditions -  °F | °C
As of 6:55 PM on Monday 24 Nov 2014 (Local Time) from KOWA Reporting Station
Light Snow Light Snow  
Wind Chill:   Ceiling: 1500
Heat Index: 16°   Visibility: 4mi
Dew Point: 10°   Wind: 17mph
Humidity: 79%   Direction: 300°WNW
Pressure: 29.76"   Gusts: 25mph
Location:  44.0575°N, 93.2082°W
Report Text: KOWA 250055Z AUTO 30015G22KT 4SM -SN BKN015 OVC023 M09/M12 A2976 RMK AO2
Loading
Personal Weather Stations






























Interactive Weather Map New forecast layout! Learn more

10-Day Weather Forecast

Advertisements
Track Severe Weather on mobile